createdAt,value
2022-12-03T00:02:11.549Z,10.60
2022-12-03T00:04:41.279Z,10.97
2022-12-03T00:07:11.397Z,10.30
2022-12-03T00:09:42.060Z,9.57
2022-12-03T00:12:11.782Z,12.03
2022-12-03T00:14:44.868Z,10.90
2022-12-03T00:17:12.121Z,8.00
2022-12-03T00:19:42.490Z,10.10
2022-12-03T00:22:16.539Z,11.27
2022-12-03T00:24:46.430Z,10.17
2022-12-03T00:27:16.623Z,11.03
2022-12-03T00:29:47.411Z,10.27
2022-12-03T00:32:17.445Z,9.43
2022-12-03T00:34:47.355Z,11.83
2022-12-03T00:37:17.554Z,14.10
2022-12-03T00:39:51.053Z,12.33
2022-12-03T00:42:21.009Z,14.73
2022-12-03T00:44:51.661Z,10.33
2022-12-03T00:47:21.550Z,12.77
2022-12-03T00:49:52.042Z,13.40
2022-12-03T00:52:22.321Z,12.53
2022-12-03T00:54:52.845Z,11.73
2022-12-03T00:57:27.996Z,13.60
2022-12-03T00:59:58.468Z,12.07
2022-12-03T01:02:29.230Z,10.73
2022-12-03T01:04:59.777Z,12.27
2022-12-03T01:07:30.267Z,11.87
2022-12-03T01:10:01.801Z,12.70
2022-12-03T01:12:32.018Z,14.77
2022-12-03T01:15:06.394Z,10.97
2022-12-03T01:17:36.699Z,13.53
2022-12-03T01:20:08.296Z,13.67
2022-12-03T01:22:35.086Z,14.83
2022-12-03T01:25:05.881Z,12.00
2022-12-03T01:27:36.925Z,15.60
2022-12-03T01:30:07.412Z,13.43
2022-12-03T01:32:40.769Z,15.77
2022-12-03T01:35:10.686Z,15.00
2022-12-03T01:37:41.238Z,13.53
2022-12-03T01:40:13.577Z,16.00
2022-12-03T01:42:43.779Z,12.40
2022-12-03T01:45:21.605Z,14.03
2022-12-03T01:47:52.639Z,11.77
2022-12-03T01:50:30.149Z,12.63
2022-12-03T01:53:01.902Z,13.30
2022-12-03T01:55:31.963Z,8.37
2022-12-03T01:58:02.108Z,8.67
2022-12-03T02:00:32.245Z,10.83
2022-12-03T02:03:10.594Z,11.43
2022-12-03T02:05:42.575Z,10.87
2022-12-03T02:08:33.197Z,10.70
2022-12-03T02:11:15.811Z,11.90
2022-12-03T02:13:48.169Z,11.57
2022-12-03T02:16:18.622Z,12.17
2022-12-03T02:18:52.513Z,11.90
2022-12-03T02:22:07.003Z,11.97
2022-12-03T02:25:05.403Z,11.23
2022-12-03T02:27:40.340Z,11.80
2022-12-03T02:30:12.768Z,13.77
2022-12-03T02:32:43.069Z,12.40
2022-12-03T02:35:20.536Z,11.53
2022-12-03T02:38:07.872Z,12.37
2022-12-03T02:40:38.496Z,20.73
2022-12-03T02:43:09.068Z,12.20
2022-12-03T02:45:41.908Z,13.30
2022-12-03T02:48:18.230Z,11.97
2022-12-03T02:50:57.721Z,11.80
2022-12-03T02:53:27.210Z,10.27
2022-12-03T02:55:59.248Z,12.77
2022-12-03T02:58:31.884Z,13.17
2022-12-03T03:01:03.236Z,12.20
2022-12-03T03:03:34.016Z,13.00
2022-12-03T03:06:08.834Z,10.13
2022-12-03T03:08:41.107Z,10.93
2022-12-03T03:11:11.521Z,12.17
2022-12-03T03:13:42.014Z,11.23
2022-12-03T03:16:12.597Z,11.40
2022-12-03T03:18:43.165Z,12.70
2022-12-03T03:21:13.530Z,11.33
2022-12-03T03:23:46.394Z,12.23
2022-12-03T03:26:17.031Z,11.53
2022-12-03T03:28:49.814Z,10.90
2022-12-03T03:31:25.574Z,12.43
2022-12-03T03:33:56.446Z,16.90
2022-12-03T03:36:28.083Z,14.47
2022-12-03T03:39:04.461Z,17.00
2022-12-03T03:41:35.128Z,16.00
2022-12-03T03:44:07.478Z,15.37
2022-12-03T03:46:37.024Z,15.20
2022-12-03T03:49:09.824Z,17.70
2022-12-03T03:51:38.976Z,19.37
2022-12-03T03:54:08.653Z,17.93
2022-12-03T03:56:42.426Z,18.57
2022-12-03T03:59:13.092Z,16.43
2022-12-03T04:01:43.829Z,18.37
2022-12-03T04:04:20.297Z,22.07
2022-12-03T04:06:46.837Z,19.13
2022-12-03T04:09:14.255Z,18.07
2022-12-03T04:12:02.958Z,17.57
2022-12-03T04:14:29.955Z,19.47
2022-12-03T04:16:56.212Z,17.13
2022-12-03T04:19:22.459Z,17.57
2022-12-03T04:22:07.241Z,19.80
2022-12-03T04:24:33.385Z,19.67
2022-12-03T04:27:18.073Z,25.70
2022-12-03T04:29:48.401Z,16.70
2022-12-03T04:32:36.364Z,20.53
2022-12-03T04:35:21.196Z,21.67
2022-12-03T04:37:51.451Z,23.60
2022-12-03T04:40:50.682Z,20.53
2022-12-03T04:43:20.791Z,22.33
2022-12-03T04:45:51.099Z,24.40
2022-12-03T04:48:26.501Z,18.07
2022-12-03T04:50:56.849Z,19.77
2022-12-03T04:53:26.910Z,21.27
2022-12-03T04:55:56.871Z,20.30
2022-12-03T04:58:27.355Z,22.00
2022-12-03T05:00:57.491Z,19.43
2022-12-03T05:03:28.238Z,19.80
2022-12-03T05:06:03.434Z,21.87
2022-12-03T05:08:33.779Z,16.80
2022-12-03T05:11:04.039Z,23.20
2022-12-03T05:13:34.838Z,21.03
2022-12-03T05:16:05.541Z,20.43
2022-12-03T05:18:36.336Z,21.13
2022-12-03T05:21:06.516Z,20.70
2022-12-03T05:23:41.621Z,24.13
2022-12-03T05:26:11.816Z,18.67
2022-12-03T05:28:42.122Z,17.57
2022-12-03T05:31:12.329Z,16.07
2022-12-03T05:33:44.542Z,16.63
2022-12-03T05:36:15.565Z,18.07
2022-12-03T05:38:46.283Z,16.30
2022-12-03T05:41:37.636Z,20.03
2022-12-03T05:44:04.696Z,20.23
2022-12-03T05:46:34.838Z,17.50
2022-12-03T05:49:05.567Z,19.17
2022-12-03T05:51:35.340Z,20.20
2022-12-03T05:54:05.954Z,19.60
2022-12-03T05:56:39.647Z,20.20
2022-12-03T05:59:09.615Z,15.50
2022-12-03T06:01:39.388Z,18.60
2022-12-03T06:04:09.693Z,17.53
2022-12-03T06:06:39.195Z,16.10
2022-12-03T06:09:09.469Z,15.70
2022-12-03T06:11:39.913Z,17.80
2022-12-03T06:14:14.500Z,18.40
2022-12-03T06:16:44.707Z,16.00
2022-12-03T06:19:14.769Z,14.47
2022-12-03T06:21:45.038Z,14.63
2022-12-03T06:24:15.496Z,14.97
2022-12-03T06:26:45.419Z,14.43
2022-12-03T06:29:15.911Z,15.03
2022-12-03T06:31:49.614Z,12.20
2022-12-03T06:34:20.170Z,15.40
2022-12-03T06:36:50.111Z,10.53
2022-12-03T06:39:20.105Z,16.40
2022-12-03T06:41:50.080Z,13.33
2022-12-03T06:44:20.797Z,13.60
2022-12-03T06:46:50.854Z,11.73
2022-12-03T06:49:24.472Z,14.07
2022-12-03T06:51:55.333Z,12.80
2022-12-03T06:54:25.040Z,14.73
2022-12-03T06:56:55.133Z,15.00
2022-12-03T06:59:25.318Z,11.53
2022-12-03T07:01:55.193Z,16.07
2022-12-03T07:04:25.386Z,14.33
2022-12-03T07:06:59.617Z,13.80
2022-12-03T07:09:29.544Z,16.70
2022-12-03T07:11:59.616Z,15.67
2022-12-03T07:14:29.880Z,14.77
2022-12-03T07:16:59.729Z,16.47
2022-12-03T07:19:32.839Z,15.97
2022-12-03T07:22:00.811Z,15.83
2022-12-03T07:24:34.645Z,17.07
2022-12-03T07:27:05.208Z,17.63
2022-12-03T07:29:35.570Z,13.57
2022-12-03T07:32:05.405Z,15.80
2022-12-03T07:34:35.915Z,15.37
2022-12-03T07:37:05.809Z,15.20
2022-12-03T07:39:36.073Z,18.63
2022-12-03T07:42:10.250Z,18.13
2022-12-03T07:44:40.543Z,17.60
2022-12-03T07:47:10.922Z,17.53
2022-12-03T07:49:41.081Z,17.67
2022-12-03T07:52:10.916Z,17.77
2022-12-03T07:54:41.100Z,17.87
2022-12-03T07:57:11.206Z,18.33
2022-12-03T07:59:45.066Z,20.13
2022-12-03T08:02:20.975Z,18.93
2022-12-03T08:04:47.796Z,17.37
2022-12-03T08:07:15.709Z,17.17
2022-12-03T08:09:46.342Z,16.40
2022-12-03T08:12:19.429Z,18.83
2022-12-03T08:14:46.572Z,21.00
2022-12-03T08:17:20.936Z,17.63
2022-12-03T08:19:50.394Z,21.60
2022-12-03T08:22:21.581Z,20.07
2022-12-03T08:24:51.191Z,17.63
2022-12-03T08:27:21.222Z,16.37
2022-12-03T08:29:54.212Z,18.37
2022-12-03T08:32:21.795Z,18.83
2022-12-03T08:34:52.181Z,16.90
2022-12-03T08:37:21.739Z,18.83
2022-12-03T08:39:54.220Z,17.20
2022-12-03T08:42:42.863Z,18.80
2022-12-03T08:45:27.624Z,17.90
2022-12-03T08:47:57.398Z,19.60
2022-12-03T08:50:37.780Z,22.40
2022-12-03T08:53:17.312Z,20.20
2022-12-03T08:55:50.929Z,21.00
2022-12-03T08:58:43.318Z,18.83
2022-12-03T09:01:24.274Z,21.60
2022-12-03T09:03:56.227Z,20.17
2022-12-03T09:06:26.445Z,17.43
2022-12-03T09:08:57.094Z,24.07
2022-12-03T09:11:27.392Z,19.10
2022-12-03T09:13:57.915Z,23.77
2022-12-03T09:16:28.292Z,22.30
2022-12-03T09:19:04.184Z,20.73
2022-12-03T09:21:34.326Z,22.53
2022-12-03T09:24:05.204Z,21.97
2022-12-03T09:26:35.874Z,21.17
2022-12-03T09:29:11.874Z,22.50
2022-12-03T09:31:42.815Z,23.90
2022-12-03T09:34:13.535Z,19.20
2022-12-03T09:36:43.768Z,21.17
2022-12-03T09:39:15.206Z,18.10
2022-12-03T09:41:46.054Z,19.63
2022-12-03T09:44:21.101Z,25.77
2022-12-03T09:46:51.564Z,24.50
2022-12-03T09:49:22.050Z,23.17
2022-12-03T09:51:54.797Z,20.50
2022-12-03T09:54:27.661Z,21.13
2022-12-03T09:57:00.225Z,21.50
2022-12-03T09:59:32.665Z,23.00
2022-12-03T10:02:03.644Z,23.50
2022-12-03T10:04:34.148Z,22.57
2022-12-03T10:07:04.338Z,22.20
2022-12-03T10:09:41.796Z,25.03
2022-12-03T10:12:12.860Z,23.70
2022-12-03T10:14:41.670Z,19.27
2022-12-03T10:17:11.197Z,20.20
2022-12-03T10:19:42.081Z,26.20
2022-12-03T10:22:10.985Z,22.80
2022-12-03T10:24:41.913Z,22.90
2022-12-03T10:27:23.999Z,21.33
2022-12-03T10:29:57.482Z,17.27
2022-12-03T10:32:25.844Z,23.10
2022-12-03T10:35:26.070Z,24.33
2022-12-03T10:37:58.511Z,23.50
2022-12-03T10:40:31.562Z,19.50
2022-12-03T10:43:28.076Z,23.50
2022-12-03T10:46:03.544Z,22.07
2022-12-03T10:48:34.684Z,21.40
2022-12-03T10:51:09.584Z,22.33
2022-12-03T10:53:40.531Z,23.53
2022-12-03T10:56:23.074Z,24.30
2022-12-03T10:58:54.614Z,25.27
2022-12-03T11:01:26.036Z,21.40
2022-12-03T11:04:04.036Z,18.17
2022-12-03T11:06:34.395Z,22.40
2022-12-03T11:09:15.988Z,22.00
2022-12-03T11:11:47.069Z,26.33
2022-12-03T11:14:52.423Z,23.87
2022-12-03T11:17:24.619Z,21.00
2022-12-03T11:19:51.676Z,24.10
2022-12-03T11:22:26.686Z,25.13
2022-12-03T11:25:25.270Z,26.80
2022-12-03T11:28:13.703Z,25.83
2022-12-03T11:30:53.049Z,22.00
2022-12-03T11:33:27.281Z,21.90
2022-12-03T11:36:03.618Z,25.03
2022-12-03T11:38:41.092Z,22.30
2022-12-03T11:41:26.215Z,22.43
2022-12-03T11:43:59.624Z,22.93
2022-12-03T11:46:35.767Z,27.13
2022-12-03T11:49:22.983Z,22.20
2022-12-03T11:51:56.335Z,23.40
2022-12-03T11:54:26.769Z,23.47
2022-12-03T11:56:57.409Z,18.83
2022-12-03T11:59:34.547Z,24.80
2022-12-03T12:02:19.286Z,24.63
2022-12-03T12:04:47.923Z,24.60
2022-12-03T12:07:35.553Z,27.00
2022-12-03T12:10:03.234Z,22.53
2022-12-03T12:12:32.056Z,22.77
2022-12-03T12:15:37.709Z,20.93
2022-12-03T12:18:33.338Z,27.97
2022-12-03T12:21:43.958Z,31.57
2022-12-03T12:24:30.109Z,21.90
2022-12-03T12:27:14.619Z,23.20
2022-12-03T12:29:45.654Z,22.27
2022-12-03T12:32:16.629Z,26.30
2022-12-03T12:34:48.590Z,25.97
2022-12-03T12:37:47.383Z,24.67
2022-12-03T12:40:23.246Z,23.33
2022-12-03T12:42:57.727Z,24.03
2022-12-03T12:45:27.995Z,26.53
2022-12-03T12:48:24.266Z,24.47
2022-12-03T12:51:09.624Z,26.30
2022-12-03T12:53:42.190Z,24.00
2022-12-03T12:56:36.748Z,26.13
2022-12-03T12:59:19.858Z,26.90
2022-12-03T13:01:50.352Z,28.83
2022-12-03T13:04:26.833Z,25.13
2022-12-03T13:06:58.728Z,22.83
2022-12-03T13:09:28.405Z,25.57
2022-12-03T13:11:59.040Z,22.70
2022-12-03T13:14:34.021Z,25.80
2022-12-03T13:17:01.286Z,25.70
2022-12-03T13:19:30.272Z,28.70
2022-12-03T13:22:12.741Z,26.60
2022-12-03T13:24:44.454Z,26.50
2022-12-03T13:27:19.528Z,26.50
2022-12-03T13:30:08.926Z,29.87
2022-12-03T13:32:38.589Z,30.67
2022-12-03T13:35:22.109Z,22.10
2022-12-03T13:37:52.544Z,25.07
2022-12-03T13:40:34.281Z,24.33
2022-12-03T13:43:10.628Z,28.00
2022-12-03T13:45:43.275Z,30.83
2022-12-03T13:48:23.683Z,28.47
2022-12-03T13:50:54.455Z,24.83
2022-12-03T13:53:32.853Z,27.93
2022-12-03T13:56:19.878Z,27.17
2022-12-03T13:58:50.583Z,26.30
2022-12-03T14:01:21.517Z,24.77
2022-12-03T14:03:56.229Z,26.03
2022-12-03T14:06:26.839Z,27.20
2022-12-03T14:08:57.269Z,26.43
2022-12-03T14:11:50.009Z,28.10
2022-12-03T14:14:20.737Z,25.93
2022-12-03T14:17:10.782Z,27.37
2022-12-03T14:19:41.190Z,26.23
2022-12-03T14:22:11.403Z,28.20
2022-12-03T14:24:45.092Z,27.00
2022-12-03T14:27:15.648Z,25.67
2022-12-03T14:29:51.651Z,27.20
2022-12-03T14:32:24.940Z,31.23
2022-12-03T14:34:55.018Z,28.77
2022-12-03T14:37:25.113Z,28.30
2022-12-03T14:39:55.560Z,30.57
2022-12-03T14:42:25.113Z,32.40
2022-12-03T14:44:55.302Z,31.27
2022-12-03T14:47:24.988Z,33.73
2022-12-03T14:49:57.287Z,25.40
2022-12-03T14:52:28.239Z,30.50
2022-12-03T14:54:58.471Z,30.53
2022-12-03T14:57:28.054Z,31.97
2022-12-03T14:59:59.883Z,27.20
2022-12-03T15:02:29.844Z,28.00
2022-12-03T15:05:00.760Z,27.43
2022-12-03T15:07:34.008Z,24.63
2022-12-03T15:10:06.268Z,26.33
2022-12-03T15:12:34.652Z,26.13
2022-12-03T15:15:05.690Z,30.03
2022-12-03T15:17:35.428Z,29.67
2022-12-03T15:20:08.206Z,26.37
2022-12-03T15:22:35.864Z,25.60
2022-12-03T15:25:07.038Z,29.73
2022-12-03T15:27:35.995Z,25.47
2022-12-03T15:30:07.392Z,25.20
2022-12-03T15:32:37.015Z,27.20
2022-12-03T15:35:08.992Z,31.00
2022-12-03T15:37:38.684Z,23.83
2022-12-03T15:40:09.905Z,30.90
2022-12-03T15:42:38.951Z,31.10
2022-12-03T15:45:14.796Z,24.40
2022-12-03T15:47:41.502Z,24.40
2022-12-03T15:50:09.849Z,28.07
2022-12-03T15:52:43.696Z,30.23
2022-12-03T15:55:14.155Z,27.33
2022-12-03T15:57:43.746Z,25.57
2022-12-03T16:00:14.358Z,30.33
2022-12-03T16:02:49.032Z,28.37
2022-12-03T16:05:18.573Z,26.43
2022-12-03T16:07:45.046Z,27.53
2022-12-03T16:10:20.708Z,26.60
2022-12-03T16:12:48.586Z,28.97
2022-12-03T16:15:23.520Z,29.97
2022-12-03T16:18:00.929Z,28.13
2022-12-03T16:20:26.993Z,25.73
2022-12-03T16:22:53.260Z,30.10
2022-12-03T16:25:20.198Z,28.10
2022-12-03T16:27:53.916Z,38.90
2022-12-03T16:30:24.099Z,28.43
2022-12-03T16:32:53.992Z,29.20
2022-12-03T16:35:24.600Z,29.80
2022-12-03T16:37:54.689Z,27.07
2022-12-03T16:40:24.779Z,31.00
2022-12-03T16:42:54.416Z,26.60
2022-12-03T16:45:28.245Z,31.07
2022-12-03T16:47:58.101Z,29.03
2022-12-03T16:50:30.195Z,24.87
2022-12-03T16:52:57.926Z,25.03
2022-12-03T16:55:29.048Z,29.50
2022-12-03T16:57:59.350Z,25.80
2022-12-03T17:00:29.703Z,28.63
2022-12-03T17:03:03.839Z,29.37
2022-12-03T17:05:34.041Z,27.37
2022-12-03T17:08:03.927Z,30.67
2022-12-03T17:10:34.515Z,28.57
2022-12-03T17:13:11.710Z,25.13
2022-12-03T17:15:38.912Z,26.03
2022-12-03T17:18:05.795Z,28.80
2022-12-03T17:20:36.711Z,28.10
2022-12-03T17:23:08.069Z,27.90
2022-12-03T17:25:38.765Z,28.37
2022-12-03T17:28:09.255Z,27.20
2022-12-03T17:30:41.174Z,27.40
2022-12-03T17:33:11.201Z,30.77
2022-12-03T17:35:42.708Z,28.23
2022-12-03T17:38:11.741Z,24.90
2022-12-03T17:40:41.834Z,27.47
2022-12-03T17:43:11.761Z,27.57
2022-12-03T17:45:43.018Z,26.40
2022-12-03T17:48:17.915Z,22.63
2022-12-03T17:50:48.191Z,23.47
2022-12-03T17:53:18.044Z,24.90
2022-12-03T17:55:48.601Z,28.03
2022-12-03T17:58:18.378Z,24.63
2022-12-03T18:00:48.736Z,26.73
2022-12-03T18:03:18.312Z,29.47
2022-12-03T18:05:51.429Z,22.40
2022-12-03T18:08:21.305Z,24.77
2022-12-03T18:10:51.337Z,22.67
2022-12-03T18:13:22.077Z,24.83
2022-12-03T18:15:52.299Z,21.57
2022-12-03T18:18:22.055Z,25.47
2022-12-03T18:20:52.652Z,26.00
2022-12-03T18:23:26.119Z,21.10
2022-12-03T18:26:05.635Z,20.13
2022-12-03T18:28:34.980Z,20.73
2022-12-03T18:31:14.295Z,21.77
2022-12-03T18:33:40.383Z,24.13
2022-12-03T18:36:20.831Z,24.63
2022-12-03T18:38:54.603Z,18.43
2022-12-03T18:41:22.109Z,22.13
2022-12-03T18:43:48.926Z,19.10
2022-12-03T18:46:45.062Z,24.57
2022-12-03T18:49:03.863Z,24.20
2022-12-03T18:51:30.109Z,23.67
2022-12-03T18:53:56.273Z,22.27
2022-12-03T18:56:29.493Z,20.63
2022-12-03T18:58:55.499Z,21.13
2022-12-03T19:01:22.152Z,20.30
2022-12-03T19:03:49.092Z,21.83
2022-12-03T19:06:22.864Z,19.00
2022-12-03T19:08:53.772Z,19.77
2022-12-03T19:11:22.716Z,21.00
2022-12-03T19:13:52.932Z,22.10
2022-12-03T19:16:23.085Z,21.13
2022-12-03T19:18:54.388Z,20.17
2022-12-03T19:21:23.551Z,19.43
2022-12-03T19:24:23.149Z,20.67
2022-12-03T19:26:43.510Z,20.57
2022-12-03T19:29:09.994Z,21.47
2022-12-03T19:31:41.059Z,20.90
2022-12-03T19:34:07.486Z,20.40
2022-12-03T19:36:33.893Z,21.20
2022-12-03T19:39:00.590Z,18.60
2022-12-03T19:41:34.082Z,18.20
2022-12-03T19:44:10.614Z,19.73
2022-12-03T19:46:37.046Z,17.47
2022-12-03T19:49:06.825Z,18.60
2022-12-03T19:51:36.903Z,17.47
2022-12-03T19:54:10.319Z,16.70
2022-12-03T19:56:37.880Z,13.40
2022-12-03T19:59:12.525Z,13.93
2022-12-03T20:01:42.464Z,12.37
2022-12-03T20:04:11.736Z,14.13
2022-12-03T20:06:41.984Z,15.80
2022-12-03T20:09:16.861Z,16.77
2022-12-03T20:11:43.908Z,14.60
2022-12-03T20:14:14.700Z,15.57
2022-12-03T20:16:48.801Z,17.73
2022-12-03T20:19:19.419Z,16.30
2022-12-03T20:21:49.752Z,14.40
2022-12-03T20:24:20.124Z,16.00
2022-12-03T20:26:50.234Z,16.67
2022-12-03T20:29:20.181Z,15.53
2022-12-03T20:31:50.414Z,17.27
2022-12-03T20:34:25.352Z,17.93
2022-12-03T20:36:55.117Z,17.23
2022-12-03T20:39:25.374Z,15.20
2022-12-03T20:41:55.452Z,18.37
2022-12-03T20:44:25.301Z,16.57
2022-12-03T20:46:55.112Z,19.27
2022-12-03T20:49:24.924Z,26.00
2022-12-03T20:52:02.869Z,31.53
2022-12-03T20:54:30.673Z,17.30
2022-12-03T20:56:58.944Z,19.70
2022-12-03T20:59:28.683Z,21.50
2022-12-03T21:01:58.725Z,25.63
2022-12-03T21:04:29.503Z,17.63
2022-12-03T21:06:59.674Z,23.40
2022-12-03T21:09:33.724Z,23.33
2022-12-03T21:12:03.706Z,24.23
2022-12-03T21:14:33.234Z,30.23
2022-12-03T21:17:08.694Z,27.60
2022-12-03T21:19:35.980Z,26.03
2022-12-03T21:22:05.890Z,29.63
2022-12-03T21:24:36.107Z,36.77
2022-12-03T21:27:08.590Z,29.53
2022-12-03T21:29:39.078Z,33.27
2022-12-03T21:32:09.331Z,31.80
2022-12-03T21:34:41.075Z,34.17
2022-12-03T21:37:09.206Z,35.30
2022-12-03T21:39:39.006Z,33.60
2022-12-03T21:42:22.186Z,35.17
2022-12-03T21:44:59.872Z,37.00
2022-12-03T21:47:25.920Z,35.60
2022-12-03T21:49:52.277Z,35.60
2022-12-03T21:52:18.621Z,34.63
2022-12-03T21:54:45.272Z,33.70
2022-12-03T21:57:14.021Z,30.03
2022-12-03T21:59:44.003Z,31.83
2022-12-03T22:02:14.387Z,37.83
2022-12-03T22:04:49.018Z,36.13
2022-12-03T22:07:23.985Z,36.17
2022-12-03T22:09:55.408Z,38.33
2022-12-03T22:12:26.138Z,32.40
2022-12-03T22:14:57.203Z,33.57
2022-12-03T22:17:28.226Z,32.40
2022-12-03T22:20:06.324Z,30.57
2022-12-03T22:22:33.018Z,29.93
2022-12-03T22:25:03.413Z,31.40
2022-12-03T22:27:33.501Z,31.27
2022-12-03T22:30:04.817Z,32.83
2022-12-03T22:32:34.178Z,30.33
2022-12-03T22:35:04.701Z,36.10
2022-12-03T22:37:38.828Z,33.40
2022-12-03T22:40:08.658Z,32.40
2022-12-03T22:42:38.425Z,28.97
2022-12-03T22:45:08.360Z,31.70
2022-12-03T22:47:38.291Z,37.30
2022-12-03T22:50:08.231Z,32.07
2022-12-03T22:52:38.154Z,32.77
2022-12-03T22:55:12.448Z,30.80
2022-12-03T22:57:42.414Z,30.07
2022-12-03T23:00:13.190Z,33.37
2022-12-03T23:02:42.318Z,31.13
2022-12-03T23:05:11.967Z,32.27
2022-12-03T23:07:43.031Z,28.37
2022-12-03T23:10:13.426Z,32.23
2022-12-03T23:12:46.293Z,31.87
2022-12-03T23:15:16.141Z,34.63
2022-12-03T23:17:46.230Z,28.43
2022-12-03T23:20:16.246Z,41.10
2022-12-03T23:22:47.896Z,32.63
2022-12-03T23:25:16.225Z,33.03
2022-12-03T23:27:46.692Z,34.20
2022-12-03T23:30:16.266Z,36.67
2022-12-03T23:32:45.754Z,28.37
2022-12-03T23:35:15.750Z,32.37
2022-12-03T23:37:46.116Z,31.60
2022-12-03T23:40:21.626Z,27.97
2022-12-03T23:42:51.803Z,29.13
2022-12-03T23:45:21.952Z,26.77
2022-12-03T23:47:57.921Z,29.43
2022-12-03T23:50:24.674Z,29.57
2022-12-03T23:52:53.363Z,30.20
2022-12-03T23:55:23.213Z,31.63
2022-12-03T23:57:56.795Z,28.40
